Time,TemperatureF,DewpointF,PressureIn,WindDirection,WindDirectionDegrees,WindSpeedMPH,WindSpeedGustMPH,Humidity,HourlyPrecipIn,Conditions,Clouds,dailyrainin,SoftwareType,DateUTC
2013-07-23 00:05:00,76.0,64.2,29.74,SW,236,3.0,19.0,67,0.00,,,0.00,Wunderground v.1.15,2013-07-23 05:05:00,
2013-07-23 00:10:00,75.9,64.2,29.74,SW,224,3.0,19.0,67,0.00,,,0.00,Wunderground v.1.15,2013-07-23 05:10:00,
2013-07-23 00:20:00,75.7,64.0,29.74,SW,220,3.0,19.0,67,0.00,,,0.00,Wunderground v.1.15,2013-07-23 05:20:00,
2013-07-23 00:25:00,75.6,63.9,29.74,SSW,209,3.0,19.0,67,0.00,,,0.00,Wunderground v.1.15,2013-07-23 05:25:00,
2013-07-23 00:30:00,75.5,63.8,29.74,SW,215,3.0,3.0,67,0.00,,,0.00,Wunderground v.1.15,2013-07-23 05:30:00,
2013-07-23 00:40:00,75.0,63.7,29.74,SW,221,3.0,19.0,68,0.00,,,0.00,Wunderground v.1.15,2013-07-23 05:40:00,
2013-07-23 00:45:00,74.8,63.9,29.74,SW,223,3.0,19.0,69,0.00,,,0.00,Wunderground v.1.15,2013-07-23 05:45:00,
2013-07-23 00:50:00,74.6,63.8,29.74,South,173,3.0,3.0,69,0.00,,,0.00,Wunderground v.1.15,2013-07-23 05:50:00,
2013-07-23 00:55:00,74.4,64.0,29.73,SSW,208,3.0,19.0,70,0.00,,,0.00,Wunderground v.1.15,2013-07-23 05:55:00,
2013-07-23 01:00:00,74.3,63.9,29.74,SSW,209,3.0,3.0,70,0.00,,,0.00,Wunderground v.1.15,2013-07-23 06:00:00,
2013-07-23 01:10:00,74.2,63.8,29.74,South,189,2.0,19.0,70,0.00,,,0.00,Wunderground v.1.15,2013-07-23 06:10:00,
2013-07-23 01:20:00,74.0,63.6,29.74,SSW,192,2.0,19.0,70,0.00,,,0.00,Wunderground v.1.15,2013-07-23 06:20:00,
2013-07-23 01:25:00,73.9,63.5,29.74,SSW,192,1.0,19.0,70,0.00,,,0.00,Wunderground v.1.15,2013-07-23 06:25:00,
2013-07-23 01:30:00,73.6,63.6,29.74,SSW,192,1.0,1.0,71,0.00,,,0.00,Wunderground v.1.15,2013-07-23 06:30:00,
2013-07-23 01:35:00,73.4,63.8,29.74,SSW,193,1.0,19.0,72,0.00,,,0.00,Wunderground v.1.15,2013-07-23 06:35:00,
2013-07-23 01:45:00,73.1,63.5,29.74,NNW,335,1.0,5.0,72,0.00,,,0.00,Wunderground v.1.15,2013-07-23 06:45:00,
2013-07-23 01:50:00,73.0,63.4,29.74,North,5,2.0,2.0,72,0.00,,,0.00,Wunderground v.1.15,2013-07-23 06:50:00,
2013-07-23 01:55:00,72.9,63.3,29.75,North,5,3.0,4.0,72,0.00,,,0.00,Wunderground v.1.15,2013-07-23 06:55:00,
2013-07-23 02:00:00,72.9,63.3,29.75,North,5,2.0,19.0,72,0.00,,,0.00,Wunderground v.1.15,2013-07-23 07:00:00,
2013-07-23 02:10:00,72.7,63.5,29.75,North,5,3.0,19.0,73,0.00,,,0.00,Wunderground v.1.15,2013-07-23 07:10:00,
2013-07-23 02:20:00,72.3,63.5,29.75,North,5,3.0,3.0,74,0.00,,,0.00,Wunderground v.1.15,2013-07-23 07:20:00,
2013-07-23 02:25:00,72.2,63.4,29.75,North,5,1.0,19.0,74,0.00,,,0.00,Wunderground v.1.15,2013-07-23 07:25:00,
2013-07-23 02:30:00,72.0,63.3,29.75,North,5,0.0,19.0,74,0.00,,,0.00,Wunderground v.1.15,2013-07-23 07:30:00,
2013-07-23 02:35:00,71.9,63.5,29.75,North,5,0.0,19.0,75,0.00,,,0.00,Wunderground v.1.15,2013-07-23 07:35:00,
2013-07-23 02:40:00,71.8,63.4,29.75,North,5,1.0,19.0,75,0.00,,,0.00,Wunderground v.1.15,2013-07-23 07:40:00,
2013-07-23 02:45:00,71.6,63.6,29.75,North,5,1.0,19.0,76,0.00,,,0.00,Wunderground v.1.15,2013-07-23 07:45:00,
2013-07-23 02:55:00,71.3,63.3,29.75,North,5,1.0,19.0,76,0.00,,,0.00,Wunderground v.1.15,2013-07-23 07:55:00,
2013-07-23 03:00:00,71.2,63.2,29.75,North,5,0.0,19.0,76,0.00,,,0.00,Wunderground v.1.15,2013-07-23 08:00:00,
2013-07-23 03:05:00,71.2,63.6,29.75,North,5,0.0,19.0,77,0.00,,,0.00,Wunderground v.1.15,2013-07-23 08:05:00,
2013-07-23 03:15:00,70.8,63.2,29.75,North,5,3.0,19.0,77,0.00,,,0.00,Wunderground v.1.15,2013-07-23 08:15:00,
2013-07-23 03:20:00,70.5,62.9,29.74,North,5,4.0,19.0,77,0.00,,,0.00,Wunderground v.1.15,2013-07-23 08:20:00,
2013-07-23 03:25:00,70.2,63.0,29.74,North,5,4.0,19.0,78,0.00,,,0.00,Wunderground v.1.15,2013-07-23 08:25:00,
2013-07-23 03:30:00,69.9,63.1,29.74,North,5,5.0,5.0,79,0.00,,,0.00,Wunderground v.1.15,2013-07-23 08:30:00,
2013-07-23 03:35:00,69.7,62.9,29.74,North,5,4.0,19.0,79,0.00,,,0.00,Wunderground v.1.15,2013-07-23 08:35:00,
2013-07-23 03:40:00,69.8,63.0,29.74,North,5,3.0,19.0,79,0.00,,,0.00,Wunderground v.1.15,2013-07-23 08:40:00,
2013-07-23 03:45:00,69.8,63.0,29.74,North,5,4.0,19.0,79,0.00,,,0.00,Wunderground v.1.15,2013-07-23 08:45:00,
2013-07-23 03:50:00,69.9,63.1,29.75,North,5,4.0,19.0,79,0.00,,,0.00,Wunderground v.1.15,2013-07-23 08:50:00,
2013-07-23 03:55:00,69.8,63.0,29.75,North,5,5.0,19.0,79,0.00,,,0.00,Wunderground v.1.15,2013-07-23 08:55:00,
2013-07-23 04:00:00,69.9,63.1,29.74,North,360,5.0,5.0,79,0.00,,,0.00,Wunderground v.1.15,2013-07-23 09:00:00,
2013-07-23 04:05:00,69.9,63.1,29.75,North,360,4.0,19.0,79,0.00,,,0.00,Wunderground v.1.15,2013-07-23 09:05:00,
2013-07-23 04:10:00,69.9,63.1,29.75,North,355,5.0,19.0,79,0.00,,,0.00,Wunderground v.1.15,2013-07-23 09:10:00,
2013-07-23 04:20:00,69.9,63.1,29.75,North,355,5.0,19.0,79,0.00,,,0.00,Wunderground v.1.15,2013-07-23 09:20:00,
2013-07-23 04:25:00,69.9,63.1,29.75,North,355,6.0,19.0,79,0.00,,,0.00,Wunderground v.1.15,2013-07-23 09:25:00,
2013-07-23 04:30:00,69.9,63.1,29.75,North,355,6.0,19.0,79,0.00,,,0.00,Wunderground v.1.15,2013-07-23 09:30:00,
2013-07-23 04:35:00,69.9,63.1,29.75,North,355,6.0,19.0,79,0.00,,,0.00,Wunderground v.1.15,2013-07-23 09:35:00,
2013-07-23 04:40:00,69.9,63.1,29.75,North,5,5.0,5.0,79,0.00,,,0.00,Wunderground v.1.15,2013-07-23 09:40:00,
2013-07-23 04:45:00,69.9,63.1,29.75,North,355,5.0,8.0,79,0.00,,,0.00,Wunderground v.1.15,2013-07-23 09:45:00,
2013-07-23 04:50:00,69.8,63.3,29.76,NNE,29,5.0,5.0,80,0.00,,,0.00,Wunderground v.1.15,2013-07-23 09:50:00,
2013-07-23 04:55:00,69.7,63.3,29.76,NNW,337,6.0,6.0,80,0.00,,,0.00,Wunderground v.1.15,2013-07-23 09:55:00,
2013-07-23 05:00:00,69.8,63.3,29.76,North,5,7.0,19.0,80,0.00,,,0.00,Wunderground v.1.15,2013-07-23 10:00:00,
2013-07-23 05:10:00,69.9,63.4,29.76,North,5,8.0,19.0,80,0.00,,,0.00,Wunderground v.1.15,2013-07-23 10:10:00,
2013-07-23 05:15:00,69.8,63.3,29.77,NNW,339,9.0,19.0,80,0.00,,,0.00,Wunderground v.1.15,2013-07-23 10:15:00,
2013-07-23 05:25:00,69.7,63.6,29.77,North,355,7.0,19.0,81,0.00,,,0.00,Wunderground v.1.15,2013-07-23 10:25:00,
2013-07-23 05:30:00,69.5,63.4,29.78,North,350,9.0,19.0,81,0.00,,,0.00,Wunderground v.1.15,2013-07-23 10:30:00,
2013-07-23 05:35:00,69.5,63.8,29.80,NNW,337,10.0,19.0,82,0.00,,,0.00,Wunderground v.1.15,2013-07-23 10:35:00,
2013-07-23 05:45:00,69.4,63.7,29.84,NW,326,16.0,19.0,82,0.00,,,0.00,Wunderground v.1.15,2013-07-23 10:45:00,
2013-07-23 05:50:00,69.3,63.6,29.83,NNW,336,17.0,22.0,82,0.00,,,0.00,Wunderground v.1.15,2013-07-23 10:50:00,
2013-07-23 05:55:00,69.3,63.6,29.85,NNW,339,19.0,22.0,82,0.00,,,0.00,Wunderground v.1.15,2013-07-23 10:55:00,
2013-07-23 06:00:00,69.4,63.7,29.86,NNW,327,20.0,33.0,82,0.00,,,0.00,Wunderground v.1.15,2013-07-23 11:00:00,
2013-07-23 06:05:00,69.3,63.2,29.85,NW,325,22.0,33.0,81,0.00,,,0.00,Wunderground v.1.15,2013-07-23 11:05:00,
2013-07-23 06:15:00,69.2,63.1,29.85,NNW,329,24.0,27.0,81,0.00,,,0.00,Wunderground v.1.15,2013-07-23 11:15:00,
2013-07-23 06:20:00,69.4,63.0,29.86,NNW,346,22.0,22.0,80,0.00,,,0.00,Wunderground v.1.15,2013-07-23 11:20:00,
2013-07-23 06:25:00,69.5,63.1,29.86,NNW,341,20.0,22.0,80,0.00,,,0.00,Wunderground v.1.15,2013-07-23 11:25:00,
2013-07-23 06:30:00,69.6,62.8,29.89,NW,323,19.0,19.0,79,0.00,,,0.00,Wunderground v.1.15,2013-07-23 11:30:00,
2013-07-23 06:35:00,69.8,63.0,29.93,WNW,297,15.0,19.0,79,0.00,,,0.00,Wunderground v.1.15,2013-07-23 11:35:00,
2013-07-23 06:40:00,69.7,63.6,29.92,NNW,338,10.0,10.0,81,0.00,,,0.01,Wunderground v.1.15,2013-07-23 11:40:00,
2013-07-23 06:50:00,68.6,63.2,29.86,NNW,333,7.0,19.0,83,0.68,,,0.05,Wunderground v.1.15,2013-07-23 11:50:00,
2013-07-23 06:55:00,67.7,63.0,29.85,North,360,10.0,19.0,85,0.34,,,0.09,Wunderground v.1.15,2013-07-23 11:55:00,
2013-07-23 07:00:00,66.9,62.9,29.84,North,355,13.0,22.0,87,0.13,,,0.10,Wunderground v.1.15,2013-07-23 12:00:00,
2013-07-23 07:05:00,66.4,62.7,29.83,NNW,333,16.0,22.0,88,0.10,,,0.10,Wunderground v.1.15,2013-07-23 12:05:00,
2013-07-23 07:15:00,66.0,63.0,29.86,North,355,13.0,19.0,90,0.04,,,0.10,Wunderground v.1.15,2013-07-23 12:15:00,
2013-07-23 07:25:00,65.9,62.9,29.88,North,350,13.0,19.0,90,0.10,,,0.12,Wunderground v.1.15,2013-07-23 12:25:00,
2013-07-23 07:30:00,65.9,62.9,29.89,North,360,10.0,10.0,90,0.13,,,0.13,Wunderground v.1.15,2013-07-23 12:30:00,
2013-07-23 07:35:00,65.8,62.8,29.89,NNE,32,7.0,19.0,90,0.09,,,0.13,Wunderground v.1.15,2013-07-23 12:35:00,
2013-07-23 07:40:00,65.8,62.8,29.87,SW,221,4.0,19.0,90,0.05,,,0.14,Wunderground v.1.15,2013-07-23 12:40:00,
2013-07-23 07:45:00,65.8,63.1,29.86,SSW,194,2.0,19.0,91,0.05,,,0.14,Wunderground v.1.15,2013-07-23 12:45:00,
2013-07-23 07:50:00,65.6,62.9,29.86,SSW,197,3.0,3.0,91,0.07,,,0.15,Wunderground v.1.15,2013-07-23 12:50:00,
2013-07-23 08:00:00,65.4,63.0,29.81,SSE,165,4.0,4.0,92,0.05,,,0.15,Wunderground v.1.15,2013-07-23 13:00:00,
2013-07-23 08:05:00,65.2,62.8,29.82,SW,234,4.0,19.0,92,0.04,,,0.15,Wunderground v.1.15,2013-07-23 13:05:00,
2013-07-23 08:10:00,65.2,62.8,29.83,West,274,3.0,19.0,92,0.00,,,0.15,Wunderground v.1.15,2013-07-23 13:10:00,
2013-07-23 08:20:00,65.2,62.8,29.81,WSW,243,3.0,3.0,92,0.00,,,0.15,Wunderground v.1.15,2013-07-23 13:20:00,
2013-07-23 08:25:00,65.1,62.7,29.80,West,281,3.0,7.0,92,0.00,,,0.15,Wunderground v.1.15,2013-07-23 13:25:00,
2013-07-23 08:35:00,65.2,62.8,29.79,West,261,5.0,19.0,92,0.00,,,0.15,Wunderground v.1.15,2013-07-23 13:35:00,
2013-07-23 08:40:00,65.2,62.8,29.80,SSW,203,4.0,4.0,92,0.00,,,0.15,Wunderground v.1.15,2013-07-23 13:40:00,
2013-07-23 08:45:00,65.3,62.9,29.80,SSE,148,3.0,19.0,92,0.00,,,0.15,Wunderground v.1.15,2013-07-23 13:45:00,
2013-07-23 08:50:00,65.3,62.9,29.79,SSW,194,2.0,19.0,92,0.00,,,0.15,Wunderground v.1.15,2013-07-23 13:50:00,
2013-07-23 08:55:00,65.3,62.9,29.77,SW,220,3.0,19.0,92,0.00,,,0.15,Wunderground v.1.15,2013-07-23 13:55:00,
2013-07-23 09:05:00,65.4,62.7,29.76,West,269,3.0,19.0,91,0.00,,,0.15,Wunderground v.1.15,2013-07-23 14:05:00,
2013-07-23 09:10:00,65.6,62.9,29.77,SW,223,2.0,2.0,91,0.00,,,0.15,Wunderground v.1.15,2013-07-23 14:10:00,
2013-07-23 09:20:00,65.9,63.5,29.78,SW,228,2.0,2.0,92,0.00,,,0.15,Wunderground v.1.15,2013-07-23 14:20:00,
2013-07-23 09:25:00,66.1,63.7,29.80,NNW,348,2.0,6.0,92,0.00,,,0.15,Wunderground v.1.15,2013-07-23 14:25:00,
2013-07-23 09:30:00,66.3,63.6,29.80,North,5,4.0,19.0,91,0.00,,,0.15,Wunderground v.1.15,2013-07-23 14:30:00,
2013-07-23 09:40:00,66.6,63.9,29.77,North,9,1.0,1.0,91,0.00,,,0.15,Wunderground v.1.15,2013-07-23 14:40:00,
2013-07-23 09:45:00,66.9,64.2,29.77,ENE,78,1.0,2.0,91,0.00,,,0.15,Wunderground v.1.15,2013-07-23 14:45:00,
2013-07-23 09:50:00,67.4,64.7,29.76,ESE,120,1.0,19.0,91,0.00,,,0.15,Wunderground v.1.15,2013-07-23 14:50:00,
2013-07-23 09:55:00,67.6,64.6,29.76,SSW,194,2.0,19.0,90,0.00,,,0.15,Wunderground v.1.15,2013-07-23 14:55:00,
2013-07-23 10:00:00,67.9,64.2,29.76,SSW,208,3.0,19.0,88,0.00,,,0.15,Wunderground v.1.15,2013-07-23 15:00:00,
2013-07-23 10:05:00,68.1,64.4,29.76,SSW,213,2.0,19.0,88,0.00,,,0.15,Wunderground v.1.15,2013-07-23 15:05:00,
2013-07-23 10:10:00,68.4,64.4,29.77,SW,215,2.0,2.0,87,0.00,,,0.15,Wunderground v.1.15,2013-07-23 15:10:00,
2013-07-23 10:15:00,68.7,64.7,29.76,SW,217,1.0,19.0,87,0.00,,,0.15,Wunderground v.1.15,2013-07-23 15:15:00,
2013-07-23 10:25:00,69.2,64.8,29.79,SW,217,1.0,19.0,86,0.00,,,0.15,Wunderground v.1.15,2013-07-23 15:25:00,
2013-07-23 10:30:00,69.5,64.8,29.80,SW,219,1.0,19.0,85,0.00,,,0.15,Wunderground v.1.15,2013-07-23 15:30:00,
2013-07-23 10:35:00,69.9,64.8,29.81,SW,219,1.0,19.0,84,0.00,,,0.15,Wunderground v.1.15,2013-07-23 15:35:00,
2013-07-23 10:40:00,70.7,65.3,29.82,SSW,203,4.0,4.0,83,0.00,,,0.15,Wunderground v.1.15,2013-07-23 15:40:00,
2013-07-23 10:50:00,72.0,65.8,29.83,SSW,194,5.0,5.0,81,0.00,,,0.15,Wunderground v.1.15,2013-07-23 15:50:00,
2013-07-23 10:55:00,72.5,65.2,29.83,SW,217,4.0,19.0,78,0.00,,,0.15,Wunderground v.1.15,2013-07-23 15:55:00,
2013-07-23 11:00:00,72.9,65.3,29.83,SE,131,4.0,4.0,77,0.00,,,0.15,Wunderground v.1.15,2013-07-23 16:00:00,
2013-07-23 11:10:00,73.5,65.5,29.83,SE,137,2.0,19.0,76,0.00,,,0.15,Wunderground v.1.15,2013-07-23 16:10:00,
2013-07-23 11:15:00,74.1,65.3,29.85,North,355,2.0,19.0,74,0.00,,,0.15,Wunderground v.1.15,2013-07-23 16:15:00,
2013-07-23 11:25:00,74.8,66.0,29.85,NNW,328,3.0,19.0,74,0.00,,,0.15,Wunderground v.1.15,2013-07-23 16:25:00,
2013-07-23 11:30:00,74.7,66.6,29.85,North,355,6.0,19.0,76,0.00,,,0.15,Wunderground v.1.15,2013-07-23 16:30:00,
2013-07-23 11:35:00,74.3,66.6,29.85,North,355,6.0,19.0,77,0.00,,,0.15,Wunderground v.1.15,2013-07-23 16:35:00,
2013-07-23 11:40:00,74.2,66.1,29.85,NNW,341,6.0,6.0,76,0.00,,,0.15,Wunderground v.1.15,2013-07-23 16:40:00,
2013-07-23 11:45:00,74.0,66.0,29.85,NNW,344,5.0,19.0,76,0.00,,,0.15,Wunderground v.1.15,2013-07-23 16:45:00,
2013-07-23 11:55:00,74.0,66.7,29.84,North,5,3.0,19.0,78,0.00,,,0.15,Wunderground v.1.15,2013-07-23 16:55:00,
2013-07-23 12:00:00,74.2,66.5,29.83,North,5,1.0,19.0,77,0.00,,,0.15,Wunderground v.1.15,2013-07-23 17:00:00,
2013-07-23 12:05:00,74.4,66.7,29.83,SW,227,2.0,19.0,77,0.00,,,0.15,Wunderground v.1.15,2013-07-23 17:05:00,
2013-07-23 12:15:00,75.0,67.3,29.84,NNE,20,4.0,19.0,77,0.00,,,0.15,Wunderground v.1.15,2013-07-23 17:15:00,
2013-07-23 12:20:00,74.8,67.1,29.83,NNW,347,6.0,19.0,77,0.00,,,0.15,Wunderground v.1.15,2013-07-23 17:20:00,
2013-07-23 12:30:00,75.3,67.2,29.85,North,5,5.0,19.0,76,0.00,,,0.15,Wunderground v.1.15,2013-07-23 17:30:00,
2013-07-23 12:35:00,75.2,67.1,29.86,North,355,6.0,19.0,76,0.00,,,0.15,Wunderground v.1.15,2013-07-23 17:35:00,
2013-07-23 12:40:00,75.0,67.7,29.86,North,355,6.0,19.0,78,0.00,,,0.15,Wunderground v.1.15,2013-07-23 17:40:00,
2013-07-23 12:45:00,75.1,67.4,29.86,North,360,5.0,19.0,77,0.00,,,0.15,Wunderground v.1.15,2013-07-23 17:45:00,
2013-07-23 12:50:00,75.1,67.0,29.85,North,5,5.0,5.0,76,0.00,,,0.15,Wunderground v.1.15,2013-07-23 17:50:00,
2013-07-23 12:55:00,75.2,67.5,29.86,North,5,4.0,19.0,77,0.00,,,0.15,Wunderground v.1.15,2013-07-23 17:55:00,
2013-07-23 13:00:00,75.4,67.3,29.86,North,5,2.0,2.0,76,0.00,,,0.15,Wunderground v.1.15,2013-07-23 18:00:00,
2013-07-23 13:05:00,75.6,67.5,29.85,North,5,1.0,19.0,76,0.00,,,0.15,Wunderground v.1.15,2013-07-23 18:05:00,
2013-07-23 13:15:00,75.1,67.0,29.83,North,5,1.0,2.0,76,0.00,,,0.15,Wunderground v.1.15,2013-07-23 18:15:00,
2013-07-23 13:20:00,74.9,67.2,29.82,WSW,238,2.0,19.0,77,0.00,,,0.15,Wunderground v.1.15,2013-07-23 18:20:00,
2013-07-23 13:30:00,74.8,67.5,29.82,WSW,238,3.0,3.0,78,0.00,,,0.15,Wunderground v.1.15,2013-07-23 18:30:00,
2013-07-23 13:45:00,74.5,67.2,29.82,WSW,244,3.0,19.0,78,0.00,,,0.15,Wunderground v.1.15,2013-07-23 18:45:00,
2013-07-23 13:50:00,74.9,67.2,29.82,WSW,246,3.0,3.0,77,0.00,,,0.15,Wunderground v.1.15,2013-07-23 18:50:00,
2013-07-23 13:55:00,74.8,67.1,29.82,SW,218,3.0,19.0,77,0.00,,,0.15,Wunderground v.1.15,2013-07-23 18:55:00,
2013-07-23 14:00:00,74.8,67.1,29.85,WSW,256,3.0,3.0,77,0.00,,,0.15,Wunderground v.1.15,2013-07-23 19:00:00,
2013-07-23 14:10:00,74.7,66.6,29.83,SSW,208,4.0,4.0,76,0.00,,,0.15,Wunderground v.1.15,2013-07-23 19:10:00,
2013-07-23 14:15:00,75.1,67.0,29.83,SW,226,3.0,19.0,76,0.00,,,0.15,Wunderground v.1.15,2013-07-23 19:15:00,
2013-07-23 14:20:00,75.5,67.8,29.83,WSW,242,2.0,19.0,77,0.00,,,0.15,Wunderground v.1.15,2013-07-23 19:20:00,
2013-07-23 14:30:00,76.6,67.7,29.83,SW,222,3.0,19.0,74,0.00,,,0.15,Wunderground v.1.15,2013-07-23 19:30:00,
2013-07-23 14:35:00,77.0,68.1,29.84,SSW,204,3.0,19.0,74,0.00,,,0.15,Wunderground v.1.15,2013-07-23 19:35:00,
2013-07-23 14:40:00,77.3,67.6,29.84,WNW,283,3.0,19.0,72,0.00,,,0.15,Wunderground v.1.15,2013-07-23 19:40:00,
2013-07-23 14:45:00,77.4,68.5,29.84,WSW,246,3.0,19.0,74,0.00,,,0.15,Wunderground v.1.15,2013-07-23 19:45:00,
2013-07-23 14:50:00,77.8,68.8,29.84,SSW,211,2.0,19.0,74,0.00,,,0.15,Wunderground v.1.15,2013-07-23 19:50:00,
2013-07-23 14:55:00,78.3,68.5,29.85,SSW,202,2.0,19.0,72,0.00,,,0.15,Wunderground v.1.15,2013-07-23 19:55:00,
2013-07-23 15:00:00,78.5,68.3,29.85,South,187,3.0,3.0,71,0.00,,,0.15,Wunderground v.1.15,2013-07-23 20:00:00,
2013-07-23 15:10:00,78.6,68.8,29.85,SSW,204,2.0,2.0,72,0.00,,,0.15,Wunderground v.1.15,2013-07-23 20:10:00,
2013-07-23 15:15:00,78.7,68.1,29.85,SW,221,2.0,19.0,70,0.00,,,0.15,Wunderground v.1.15,2013-07-23 20:15:00,
2013-07-23 15:20:00,78.9,68.3,29.85,SSE,157,2.0,19.0,70,0.00,,,0.15,Wunderground v.1.15,2013-07-23 20:20:00,
2013-07-23 15:25:00,79.2,68.1,29.86,ESE,116,2.0,19.0,69,0.00,,,0.15,Wunderground v.1.15,2013-07-23 20:25:00,
2013-07-23 15:30:00,79.6,66.3,29.86,South,180,2.0,19.0,64,0.00,,,0.15,Wunderground v.1.15,2013-07-23 20:30:00,
2013-07-23 15:35:00,79.5,67.1,29.85,SW,216,2.0,19.0,66,0.00,,,0.15,Wunderground v.1.15,2013-07-23 20:35:00,
2013-07-23 15:45:00,79.8,67.0,29.84,SW,227,2.0,19.0,65,0.00,,,0.15,Wunderground v.1.15,2013-07-23 20:45:00,
2013-07-23 15:50:00,80.0,67.6,29.85,SSE,165,3.0,19.0,66,0.00,,,0.15,Wunderground v.1.15,2013-07-23 20:50:00,
2013-07-23 15:55:00,80.3,67.5,29.86,North,349,2.0,19.0,65,0.00,,,0.15,Wunderground v.1.15,2013-07-23 20:55:00,
2013-07-23 16:00:00,80.4,67.1,29.85,SE,140,2.0,19.0,64,0.00,,,0.15,Wunderground v.1.15,2013-07-23 21:00:00,
2013-07-23 16:10:00,80.7,67.4,29.86,NW,310,3.0,3.0,64,0.00,,,0.15,Wunderground v.1.15,2013-07-23 21:10:00,
2013-07-23 16:20:00,81.2,67.9,29.85,South,169,2.0,2.0,64,0.00,,,0.15,Wunderground v.1.15,2013-07-23 21:20:00,
2013-07-23 16:30:00,81.2,67.4,29.85,North,350,2.0,19.0,63,0.00,,,0.15,Wunderground v.1.15,2013-07-23 21:30:00,
2013-07-23 16:35:00,81.7,67.9,29.85,WNW,297,4.0,19.0,63,0.00,,,0.15,Wunderground v.1.15,2013-07-23 21:35:00,
2013-07-23 16:40:00,81.8,67.5,29.85,West,263,5.0,5.0,62,0.00,,,0.15,Wunderground v.1.15,2013-07-23 21:40:00,
2013-07-23 16:45:00,81.8,66.6,29.85,SSW,206,3.0,19.0,60,0.00,,,0.15,Wunderground v.1.15,2013-07-23 21:45:00,
2013-07-23 16:55:00,81.0,67.2,29.85,SSW,196,3.0,19.0,63,0.00,,,0.15,Wunderground v.1.15,2013-07-23 21:55:00,
2013-07-23 17:00:00,80.9,66.7,29.85,SSW,209,3.0,3.0,62,0.00,,,0.15,Wunderground v.1.15,2013-07-23 22:00:00,
2013-07-23 17:10:00,81.1,67.3,29.85,SW,231,2.0,19.0,63,0.00,,,0.15,Wunderground v.1.15,2013-07-23 22:10:00,
2013-07-23 17:20:00,81.1,66.4,29.85,SW,229,2.0,19.0,61,0.00,,,0.15,Wunderground v.1.15,2013-07-23 22:20:00,
2013-07-23 17:25:00,81.2,67.9,29.85,SSW,206,2.0,19.0,64,0.00,,,0.15,Wunderground v.1.15,2013-07-23 22:25:00,
2013-07-23 17:35:00,81.7,67.9,29.84,SSW,197,2.0,19.0,63,0.00,,,0.15,Wunderground v.1.15,2013-07-23 22:35:00,
2013-07-23 17:40:00,81.7,67.9,29.84,SW,223,2.0,2.0,63,0.00,,,0.15,Wunderground v.1.15,2013-07-23 22:40:00,
2013-07-23 17:45:00,81.8,67.0,29.85,SW,225,2.0,19.0,61,0.00,,,0.15,Wunderground v.1.15,2013-07-23 22:45:00,
2013-07-23 17:50:00,81.7,67.4,29.84,WNW,282,2.0,2.0,62,0.00,,,0.15,Wunderground v.1.15,2013-07-23 22:50:00,
2013-07-23 17:55:00,81.6,67.3,29.85,WSW,257,2.0,19.0,62,0.00,,,0.15,Wunderground v.1.15,2013-07-23 22:55:00,
2013-07-23 18:05:00,81.6,67.8,29.84,ESE,112,1.0,19.0,63,0.00,,,0.15,Wunderground v.1.15,2013-07-23 23:05:00,
2013-07-23 18:10:00,81.9,67.1,29.84,ENE,70,1.0,19.0,61,0.00,,,0.15,Wunderground v.1.15,2013-07-23 23:10:00,
2013-07-23 18:15:00,82.3,67.5,29.84,ENE,71,1.0,19.0,61,0.00,,,0.15,Wunderground v.1.15,2013-07-23 23:15:00,
2013-07-23 18:20:00,82.3,67.5,29.84,ENE,78,1.0,19.0,61,0.00,,,0.15,Wunderground v.1.15,2013-07-23 23:20:00,
2013-07-23 18:25:00,82.1,67.8,29.84,ENE,78,1.0,19.0,62,0.00,,,0.15,Wunderground v.1.15,2013-07-23 23:25:00,
2013-07-23 18:35:00,81.8,67.0,29.84,East,80,2.0,19.0,61,0.00,,,0.15,Wunderground v.1.15,2013-07-23 23:35:00,
2013-07-23 18:40:00,81.7,66.9,29.84,East,80,1.0,19.0,61,0.00,,,0.15,Wunderground v.1.15,2013-07-23 23:40:00,
2013-07-23 18:45:00,81.7,67.4,29.84,ENE,76,1.0,19.0,62,0.00,,,0.15,Wunderground v.1.15,2013-07-23 23:45:00,
2013-07-23 18:55:00,82.4,66.6,29.83,North,5,2.0,19.0,59,0.00,,,0.15,Wunderground v.1.15,2013-07-23 23:55:00,
2013-07-23 19:00:00,82.1,65.9,29.83,North,5,1.0,19.0,58,0.00,,,0.15,Wunderground v.1.15,2013-07-24 00:00:00,
2013-07-23 19:05:00,81.6,66.4,29.83,WSW,250,2.0,19.0,60,0.00,,,0.15,Wunderground v.1.15,2013-07-24 00:05:00,
2013-07-23 19:15:00,81.7,67.4,29.83,NNW,346,1.0,19.0,62,0.00,,,0.15,Wunderground v.1.15,2013-07-24 00:15:00,
2013-07-23 19:20:00,82.0,66.7,29.83,North,9,3.0,19.0,60,0.00,,,0.15,Wunderground v.1.15,2013-07-24 00:20:00,
2013-07-23 19:25:00,82.2,66.9,29.83,North,9,5.0,19.0,60,0.00,,,0.15,Wunderground v.1.15,2013-07-24 00:25:00,
2013-07-23 19:35:00,82.1,66.8,29.84,North,5,5.0,19.0,60,0.00,,,0.15,Wunderground v.1.15,2013-07-24 00:35:00,
2013-07-23 19:45:00,81.6,66.4,29.84,North,355,5.0,19.0,60,0.00,,,0.15,Wunderground v.1.15,2013-07-24 00:45:00,
2013-07-23 19:50:00,81.3,66.6,29.84,North,5,5.0,5.0,61,0.00,,,0.15,Wunderground v.1.15,2013-07-24 00:50:00,
2013-07-23 19:55:00,81.0,66.8,29.85,North,5,5.0,6.0,62,0.00,,,0.15,Wunderground v.1.15,2013-07-24 00:55:00,
2013-07-23 20:00:00,80.7,66.9,29.85,North,5,5.0,19.0,63,0.00,,,0.15,Wunderground v.1.15,2013-07-24 01:00:00,
2013-07-23 20:05:00,80.3,66.6,29.85,North,360,5.0,19.0,63,0.00,,,0.15,Wunderground v.1.15,2013-07-24 01:05:00,
2013-07-23 20:10:00,79.9,66.6,29.84,North,360,5.0,5.0,64,0.00,,,0.15,Wunderground v.1.15,2013-07-24 01:10:00,
2013-07-23 20:20:00,79.3,66.5,29.85,North,5,3.0,19.0,65,0.00,,,0.15,Wunderground v.1.15,2013-07-24 01:20:00,
2013-07-23 20:30:00,78.6,66.3,29.85,North,360,3.0,3.0,66,0.00,,,0.15,Wunderground v.1.15,2013-07-24 01:30:00,
2013-07-23 20:35:00,78.0,66.2,29.85,North,5,2.0,19.0,67,0.00,,,0.15,Wunderground v.1.15,2013-07-24 01:35:00,
2013-07-23 20:40:00,77.4,66.0,29.85,North,11,3.0,3.0,68,0.00,,,0.15,Wunderground v.1.15,2013-07-24 01:40:00,
2013-07-23 20:45:00,76.7,66.2,29.84,North,9,3.0,19.0,70,0.00,,,0.15,Wunderground v.1.15,2013-07-24 01:45:00,
2013-07-23 21:00:00,75.1,65.9,29.86,North,5,3.0,3.0,73,0.00,,,0.15,Wunderground v.1.15,2013-07-24 02:00:00,
2013-07-23 21:05:00,74.7,66.2,29.85,North,5,2.0,19.0,75,0.00,,,0.15,Wunderground v.1.15,2013-07-24 02:05:00,
2013-07-23 21:15:00,74.0,66.0,29.86,North,5,2.0,19.0,76,0.00,,,0.15,Wunderground v.1.15,2013-07-24 02:15:00,
2013-07-23 21:20:00,73.7,66.0,29.87,North,5,1.0,19.0,77,0.00,,,0.15,Wunderground v.1.15,2013-07-24 02:20:00,
2013-07-23 21:35:00,72.9,65.6,29.87,North,5,1.0,19.0,78,0.00,,,0.15,Wunderground v.1.15,2013-07-24 02:35:00,
2013-07-23 21:45:00,72.3,65.4,29.87,North,5,1.0,19.0,79,0.00,,,0.15,Wunderground v.1.15,2013-07-24 02:45:00,
2013-07-23 21:50:00,71.9,65.4,29.88,North,5,2.0,19.0,80,0.00,,,0.15,Wunderground v.1.15,2013-07-24 02:50:00,
2013-07-23 21:55:00,71.6,65.5,29.88,North,5,2.0,19.0,81,0.00,,,0.15,Wunderground v.1.15,2013-07-24 02:55:00,
2013-07-23 22:05:00,71.0,64.9,29.88,North,5,1.0,19.0,81,0.00,,,0.15,Wunderground v.1.15,2013-07-24 03:05:00,
2013-07-23 22:10:00,70.8,65.0,29.88,North,5,0.0,19.0,82,0.00,,,0.15,Wunderground v.1.15,2013-07-24 03:10:00,
2013-07-23 22:20:00,70.4,64.6,29.88,North,5,1.0,1.0,82,0.00,,,0.15,Wunderground v.1.15,2013-07-24 03:20:00,
2013-07-23 22:25:00,70.2,64.4,29.88,NNE,27,1.0,19.0,82,0.00,,,0.15,Wunderground v.1.15,2013-07-24 03:25:00,
2013-07-23 22:35:00,69.8,64.4,29.88,NNE,27,0.0,19.0,83,0.00,,,0.15,Wunderground v.1.15,2013-07-24 03:35:00,
2013-07-23 22:40:00,69.6,64.5,29.88,NNE,27,0.0,19.0,84,0.00,,,0.15,Wunderground v.1.15,2013-07-24 03:40:00,
2013-07-23 22:45:00,69.4,64.4,29.89,NNE,27,0.0,19.0,84,0.00,,,0.15,Wunderground v.1.15,2013-07-24 03:45:00,
2013-07-23 22:50:00,69.2,64.2,29.88,NNE,27,0.0,19.0,84,0.00,,,0.15,Wunderground v.1.15,2013-07-24 03:50:00,
2013-07-23 23:00:00,68.9,64.2,29.88,NNE,27,0.0,19.0,85,0.00,,,0.15,Wunderground v.1.15,2013-07-24 04:00:00,
2013-07-23 23:05:00,68.8,64.1,29.89,NNE,27,0.0,19.0,85,0.00,,,0.15,Wunderground v.1.15,2013-07-24 04:05:00,
2013-07-23 23:10:00,68.7,64.0,29.89,NNE,27,0.0,19.0,85,0.00,,,0.15,Wunderground v.1.15,2013-07-24 04:10:00,
2013-07-23 23:15:00,68.6,63.9,29.89,NNE,27,0.0,19.0,85,0.00,,,0.15,Wunderground v.1.15,2013-07-24 04:15:00,
2013-07-23 23:20:00,68.5,64.1,29.89,NNE,27,0.0,19.0,86,0.00,,,0.15,Wunderground v.1.15,2013-07-24 04:20:00,
2013-07-23 23:25:00,68.3,63.9,29.89,NNE,21,2.0,19.0,86,0.00,,,0.15,Wunderground v.1.15,2013-07-24 04:25:00,
2013-07-23 23:30:00,68.1,64.1,29.90,ENE,74,2.0,2.0,87,0.00,,,0.15,Wunderground v.1.15,2013-07-24 04:30:00,
2013-07-23 23:35:00,68.0,64.0,29.89,ENE,74,1.0,19.0,87,0.00,,,0.15,Wunderground v.1.15,2013-07-24 04:35:00,
2013-07-23 23:40:00,67.9,63.9,29.89,ENE,74,0.0,19.0,87,0.00,,,0.15,Wunderground v.1.15,2013-07-24 04:40:00,
2013-07-23 23:45:00,67.7,63.7,29.90,ENE,74,0.0,19.0,87,0.00,,,0.15,Wunderground v.1.15,2013-07-24 04:45:00,
2013-07-23 23:50:00,67.6,63.6,29.90,ENE,74,0.0,19.0,87,0.00,,,0.15,Wunderground v.1.15,2013-07-24 04:50:00,
2013-07-23 23:55:00,67.6,63.6,29.90,ENE,74,0.0,19.0,87,0.00,,,0.15,Wunderground v.1.15,2013-07-24 04:55:00,